sensor_id;sensor_type;location;lat;lon;timestamp;P1;durP1;ratioP1;P2;durP2;ratioP2
1004;SDS011;491;53.480;10.174;2023-12-07T00:01:07;83.43;;;34.83;;
1004;SDS011;491;53.480;10.174;2023-12-07T00:03:33;80.83;;;37.17;;
1004;SDS011;491;53.480;10.174;2023-12-07T00:05:59;84.03;;;36.43;;
1004;SDS011;491;53.480;10.174;2023-12-07T00:08:25;78.60;;;34.97;;
1004;SDS011;491;53.480;10.174;2023-12-07T00:10:51;84.77;;;36.47;;
1004;SDS011;491;53.480;10.174;2023-12-07T00:13:17;86.53;;;36.53;;
1004;SDS011;491;53.480;10.174;2023-12-07T00:15:42;73.67;;;35.03;;
1004;SDS011;491;53.480;10.174;2023-12-07T00:18:08;79.20;;;35.37;;
1004;SDS011;491;53.480;10.174;2023-12-07T00:20:34;81.10;;;34.60;;
1004;SDS011;491;53.480;10.174;2023-12-07T00:23:00;78.60;;;37.27;;
1004;SDS011;491;53.480;10.174;2023-12-07T00:25:26;74.17;;;35.50;;
1004;SDS011;491;53.480;10.174;2023-12-07T00:27:52;79.70;;;35.63;;
1004;SDS011;491;53.480;10.174;2023-12-07T00:30:18;86.07;;;35.77;;
1004;SDS011;491;53.480;10.174;2023-12-07T00:32:44;73.67;;;36.60;;
1004;SDS011;491;53.480;10.174;2023-12-07T00:35:11;80.67;;;36.43;;
1004;SDS011;491;53.480;10.174;2023-12-07T00:37:37;72.47;;;34.80;;
1004;SDS011;491;53.480;10.174;2023-12-07T00:40:05;80.03;;;33.93;;
1004;SDS011;491;53.480;10.174;2023-12-07T00:42:32;68.53;;;34.27;;
1004;SDS011;491;53.480;10.174;2023-12-07T00:44:59;65.43;;;33.20;;
1004;SDS011;491;53.480;10.174;2023-12-07T00:47:25;74.10;;;34.30;;
1004;SDS011;491;53.480;10.174;2023-12-07T00:49:51;74.70;;;35.50;;
1004;SDS011;491;53.480;10.174;2023-12-07T00:52:17;75.90;;;35.27;;
1004;SDS011;491;53.480;10.174;2023-12-07T00:54:43;67.63;;;35.30;;
1004;SDS011;491;53.480;10.174;2023-12-07T00:57:09;68.10;;;36.43;;
1004;SDS011;491;53.480;10.174;2023-12-07T00:59:35;78.67;;;36.37;;
1004;SDS011;491;53.480;10.174;2023-12-07T01:02:06;76.47;;;34.13;;
1004;SDS011;491;53.480;10.174;2023-12-07T01:04:33;72.70;;;34.30;;
1004;SDS011;491;53.480;10.174;2023-12-07T01:06:59;68.33;;;34.33;;
1004;SDS011;491;53.480;10.174;2023-12-07T01:09:25;62.63;;;31.40;;
1004;SDS011;491;53.480;10.174;2023-12-07T01:11:51;76.77;;;32.60;;
1004;SDS011;491;53.480;10.174;2023-12-07T01:14:17;71.77;;;34.47;;
1004;SDS011;491;53.480;10.174;2023-12-07T01:16:44;72.73;;;33.63;;
1004;SDS011;491;53.480;10.174;2023-12-07T01:19:10;65.80;;;32.33;;
1004;SDS011;491;53.480;10.174;2023-12-07T01:21:39;67.00;;;32.07;;
1004;SDS011;491;53.480;10.174;2023-12-07T01:24:05;66.50;;;33.13;;
1004;SDS011;491;53.480;10.174;2023-12-07T01:26:30;71.03;;;34.67;;
1004;SDS011;491;53.480;10.174;2023-12-07T01:28:57;66.93;;;32.13;;
1004;SDS011;491;53.480;10.174;2023-12-07T01:31:23;67.13;;;31.27;;
1004;SDS011;491;53.480;10.174;2023-12-07T01:33:48;58.77;;;30.10;;
1004;SDS011;491;53.480;10.174;2023-12-07T01:36:14;70.50;;;33.13;;
1004;SDS011;491;53.480;10.174;2023-12-07T01:38:40;68.43;;;31.40;;
1004;SDS011;491;53.480;10.174;2023-12-07T01:41:07;68.93;;;33.23;;
1004;SDS011;491;53.480;10.174;2023-12-07T01:43:33;66.50;;;33.40;;
1004;SDS011;491;53.480;10.174;2023-12-07T01:45:59;64.33;;;33.60;;
1004;SDS011;491;53.480;10.174;2023-12-07T01:48:25;58.83;;;31.20;;
1004;SDS011;491;53.480;10.174;2023-12-07T01:50:52;68.80;;;31.93;;
1004;SDS011;491;53.480;10.174;2023-12-07T01:53:19;67.70;;;31.03;;
1004;SDS011;491;53.480;10.174;2023-12-07T01:55:46;63.23;;;31.33;;
1004;SDS011;491;53.480;10.174;2023-12-07T01:58:13;64.60;;;30.90;;
1004;SDS011;491;53.480;10.174;2023-12-07T02:00:39;70.30;;;34.50;;
1004;SDS011;491;53.480;10.174;2023-12-07T02:03:05;62.80;;;30.90;;
1004;SDS011;491;53.480;10.174;2023-12-07T02:05:31;65.50;;;31.87;;
1004;SDS011;491;53.480;10.174;2023-12-07T02:07:58;67.10;;;31.63;;
1004;SDS011;491;53.480;10.174;2023-12-07T02:10:24;63.70;;;31.67;;
1004;SDS011;491;53.480;10.174;2023-12-07T02:12:51;57.43;;;27.80;;
1004;SDS011;491;53.480;10.174;2023-12-07T02:15:20;53.87;;;30.23;;
1004;SDS011;491;53.480;10.174;2023-12-07T02:20:14;55.70;;;31.13;;
1004;SDS011;491;53.480;10.174;2023-12-07T02:22:42;61.57;;;30.30;;
1004;SDS011;491;53.480;10.174;2023-12-07T02:25:10;64.20;;;30.53;;
1004;SDS011;491;53.480;10.174;2023-12-07T02:27:37;66.47;;;31.70;;
1004;SDS011;491;53.480;10.174;2023-12-07T02:30:03;62.17;;;32.80;;
1004;SDS011;491;53.480;10.174;2023-12-07T02:32:29;59.60;;;31.53;;
1004;SDS011;491;53.480;10.174;2023-12-07T02:34:55;64.13;;;31.60;;
1004;SDS011;491;53.480;10.174;2023-12-07T02:37:21;64.90;;;32.17;;
1004;SDS011;491;53.480;10.174;2023-12-07T02:39:48;59.43;;;29.90;;
1004;SDS011;491;53.480;10.174;2023-12-07T02:42:14;62.93;;;32.37;;
1004;SDS011;491;53.480;10.174;2023-12-07T02:44:41;65.07;;;31.97;;
1004;SDS011;491;53.480;10.174;2023-12-07T02:47:07;62.00;;;33.57;;
1004;SDS011;491;53.480;10.174;2023-12-07T02:49:33;74.07;;;32.97;;
1004;SDS011;491;53.480;10.174;2023-12-07T02:51:59;62.70;;;31.03;;
1004;SDS011;491;53.480;10.174;2023-12-07T02:54:25;64.90;;;32.70;;
1004;SDS011;491;53.480;10.174;2023-12-07T02:56:51;62.73;;;32.00;;
1004;SDS011;491;53.480;10.174;2023-12-07T02:59:17;59.77;;;29.73;;
1004;SDS011;491;53.480;10.174;2023-12-07T03:01:43;59.97;;;32.77;;
1004;SDS011;491;53.480;10.174;2023-12-07T03:04:09;59.43;;;32.60;;
1004;SDS011;491;53.480;10.174;2023-12-07T03:06:35;63.57;;;32.50;;
1004;SDS011;491;53.480;10.174;2023-12-07T03:09:01;53.83;;;29.80;;
1004;SDS011;491;53.480;10.174;2023-12-07T03:11:26;58.23;;;30.93;;
1004;SDS011;491;53.480;10.174;2023-12-07T03:13:52;52.90;;;27.90;;
1004;SDS011;491;53.480;10.174;2023-12-07T03:16:18;55.77;;;31.10;;
1004;SDS011;491;53.480;10.174;2023-12-07T03:18:44;51.07;;;28.17;;
1004;SDS011;491;53.480;10.174;2023-12-07T03:21:10;54.10;;;27.60;;
1004;SDS011;491;53.480;10.174;2023-12-07T03:23:36;49.87;;;26.23;;
1004;SDS011;491;53.480;10.174;2023-12-07T03:26:02;51.30;;;27.83;;
1004;SDS011;491;53.480;10.174;2023-12-07T03:28:28;52.03;;;28.63;;
1004;SDS011;491;53.480;10.174;2023-12-07T03:30:54;55.80;;;27.50;;
1004;SDS011;491;53.480;10.174;2023-12-07T03:33:20;44.57;;;23.13;;
1004;SDS011;491;53.480;10.174;2023-12-07T03:35:45;44.17;;;25.23;;
1004;SDS011;491;53.480;10.174;2023-12-07T03:38:11;45.57;;;26.70;;
1004;SDS011;491;53.480;10.174;2023-12-07T03:40:37;53.03;;;27.20;;
1004;SDS011;491;53.480;10.174;2023-12-07T03:43:03;52.43;;;27.23;;
1004;SDS011;491;53.480;10.174;2023-12-07T03:45:29;44.50;;;27.60;;
1004;SDS011;491;53.480;10.174;2023-12-07T03:47:55;48.93;;;26.27;;
1004;SDS011;491;53.480;10.174;2023-12-07T03:50:21;50.30;;;25.40;;
1004;SDS011;491;53.480;10.174;2023-12-07T03:52:47;51.00;;;26.07;;
1004;SDS011;491;53.480;10.174;2023-12-07T03:55:13;51.17;;;27.00;;
1004;SDS011;491;53.480;10.174;2023-12-07T03:57:39;48.33;;;25.50;;
1004;SDS011;491;53.480;10.174;2023-12-07T04:00:05;51.10;;;27.27;;
1004;SDS011;491;53.480;10.174;2023-12-07T04:02:35;54.40;;;30.40;;
1004;SDS011;491;53.480;10.174;2023-12-07T04:05:01;53.80;;;28.07;;
1004;SDS011;491;53.480;10.174;2023-12-07T04:07:27;51.17;;;28.23;;
1004;SDS011;491;53.480;10.174;2023-12-07T04:09:55;53.07;;;28.77;;
1004;SDS011;491;53.480;10.174;2023-12-07T04:12:22;55.07;;;30.37;;
1004;SDS011;491;53.480;10.174;2023-12-07T04:14:48;58.10;;;29.23;;
1004;SDS011;491;53.480;10.174;2023-12-07T04:17:14;62.20;;;29.57;;
1004;SDS011;491;53.480;10.174;2023-12-07T04:19:46;65.53;;;29.67;;
1004;SDS011;491;53.480;10.174;2023-12-07T04:22:12;57.50;;;29.97;;
1004;SDS011;491;53.480;10.174;2023-12-07T04:24:38;56.07;;;29.33;;
1004;SDS011;491;53.480;10.174;2023-12-07T04:27:04;57.03;;;29.43;;
1004;SDS011;491;53.480;10.174;2023-12-07T04:29:30;63.07;;;31.07;;
1004;SDS011;491;53.480;10.174;2023-12-07T04:31:55;68.43;;;31.20;;
1004;SDS011;491;53.480;10.174;2023-12-07T04:34:21;72.50;;;32.20;;
1004;SDS011;491;53.480;10.174;2023-12-07T04:36:47;58.17;;;29.73;;
1004;SDS011;491;53.480;10.174;2023-12-07T04:39:13;71.20;;;31.20;;
1004;SDS011;491;53.480;10.174;2023-12-07T04:41:39;60.37;;;29.07;;
1004;SDS011;491;53.480;10.174;2023-12-07T04:44:05;58.77;;;26.73;;
1004;SDS011;491;53.480;10.174;2023-12-07T04:46:40;51.77;;;29.80;;
1004;SDS011;491;53.480;10.174;2023-12-07T04:49:06;56.30;;;29.67;;
1004;SDS011;491;53.480;10.174;2023-12-07T04:51:32;58.47;;;28.50;;
1004;SDS011;491;53.480;10.174;2023-12-07T04:53:58;58.97;;;29.33;;
1004;SDS011;491;53.480;10.174;2023-12-07T04:56:24;56.30;;;28.67;;
1004;SDS011;491;53.480;10.174;2023-12-07T04:58:50;62.83;;;29.93;;
1004;SDS011;491;53.480;10.174;2023-12-07T05:01:15;62.03;;;31.03;;
1004;SDS011;491;53.480;10.174;2023-12-07T05:03:43;57.50;;;28.80;;
1004;SDS011;491;53.480;10.174;2023-12-07T05:06:09;69.70;;;31.20;;
1004;SDS011;491;53.480;10.174;2023-12-07T05:08:35;64.30;;;31.67;;
1004;SDS011;491;53.480;10.174;2023-12-07T05:11:01;71.13;;;31.37;;
1004;SDS011;491;53.480;10.174;2023-12-07T05:13:27;59.70;;;27.30;;
1004;SDS011;491;53.480;10.174;2023-12-07T05:15:53;62.63;;;28.53;;
1004;SDS011;491;53.480;10.174;2023-12-07T05:18:19;58.70;;;29.83;;
1004;SDS011;491;53.480;10.174;2023-12-07T05:20:45;59.33;;;31.00;;
1004;SDS011;491;53.480;10.174;2023-12-07T05:23:11;59.53;;;28.77;;
1004;SDS011;491;53.480;10.174;2023-12-07T05:25:36;56.77;;;26.50;;
1004;SDS011;491;53.480;10.174;2023-12-07T05:28:02;59.57;;;26.33;;
1004;SDS011;491;53.480;10.174;2023-12-07T05:30:29;54.70;;;26.33;;
1004;SDS011;491;53.480;10.174;2023-12-07T05:32:55;55.53;;;26.80;;
1004;SDS011;491;53.480;10.174;2023-12-07T05:35:21;55.60;;;28.50;;
1004;SDS011;491;53.480;10.174;2023-12-07T05:37:48;53.43;;;28.10;;
1004;SDS011;491;53.480;10.174;2023-12-07T05:40:15;50.60;;;26.10;;
1004;SDS011;491;53.480;10.174;2023-12-07T05:42:41;59.60;;;29.80;;
1004;SDS011;491;53.480;10.174;2023-12-07T05:45:07;57.73;;;28.37;;
1004;SDS011;491;53.480;10.174;2023-12-07T05:47:35;54.80;;;26.87;;
1004;SDS011;491;53.480;10.174;2023-12-07T05:50:01;47.53;;;24.97;;
1004;SDS011;491;53.480;10.174;2023-12-07T05:52:28;48.73;;;27.53;;
1004;SDS011;491;53.480;10.174;2023-12-07T05:54:54;48.37;;;26.53;;
1004;SDS011;491;53.480;10.174;2023-12-07T05:57:20;47.47;;;26.53;;
1004;SDS011;491;53.480;10.174;2023-12-07T05:59:46;50.67;;;27.60;;
1004;SDS011;491;53.480;10.174;2023-12-07T06:02:12;48.87;;;25.90;;
1004;SDS011;491;53.480;10.174;2023-12-07T06:04:37;52.60;;;25.70;;
1004;SDS011;491;53.480;10.174;2023-12-07T06:07:03;43.83;;;25.67;;
1004;SDS011;491;53.480;10.174;2023-12-07T06:09:29;52.37;;;27.60;;
1004;SDS011;491;53.480;10.174;2023-12-07T06:11:55;45.93;;;26.40;;
1004;SDS011;491;53.480;10.174;2023-12-07T06:14:21;42.30;;;25.63;;
1004;SDS011;491;53.480;10.174;2023-12-07T06:16:50;44.47;;;25.67;;
1004;SDS011;491;53.480;10.174;2023-12-07T06:19:16;45.80;;;26.47;;
1004;SDS011;491;53.480;10.174;2023-12-07T06:21:43;48.63;;;25.87;;
1004;SDS011;491;53.480;10.174;2023-12-07T06:24:12;42.90;;;23.87;;
1004;SDS011;491;53.480;10.174;2023-12-07T06:26:39;47.17;;;26.30;;
1004;SDS011;491;53.480;10.174;2023-12-07T06:29:05;46.40;;;25.70;;
1004;SDS011;491;53.480;10.174;2023-12-07T06:31:32;38.47;;;24.63;;
1004;SDS011;491;53.480;10.174;2023-12-07T06:33:58;42.77;;;25.00;;
1004;SDS011;491;53.480;10.174;2023-12-07T06:36:25;39.07;;;23.63;;
1004;SDS011;491;53.480;10.174;2023-12-07T06:38:52;40.50;;;25.37;;
1004;SDS011;491;53.480;10.174;2023-12-07T06:41:18;44.77;;;23.80;;
1004;SDS011;491;53.480;10.174;2023-12-07T06:43:44;44.10;;;23.23;;
1004;SDS011;491;53.480;10.174;2023-12-07T06:46:13;44.43;;;23.73;;
1004;SDS011;491;53.480;10.174;2023-12-07T06:48:39;42.33;;;23.20;;
1004;SDS011;491;53.480;10.174;2023-12-07T06:51:05;38.73;;;21.83;;
1004;SDS011;491;53.480;10.174;2023-12-07T06:53:31;37.60;;;23.70;;
1004;SDS011;491;53.480;10.174;2023-12-07T06:55:57;37.93;;;21.93;;
1004;SDS011;491;53.480;10.174;2023-12-07T06:58:23;37.53;;;24.47;;
1004;SDS011;491;53.480;10.174;2023-12-07T07:00:49;45.73;;;25.43;;
1004;SDS011;491;53.480;10.174;2023-12-07T07:03:15;44.20;;;25.87;;
1004;SDS011;491;53.480;10.174;2023-12-07T07:05:41;48.77;;;27.30;;
1004;SDS011;491;53.480;10.174;2023-12-07T07:08:07;49.77;;;28.37;;
1004;SDS011;491;53.480;10.174;2023-12-07T07:10:34;46.13;;;25.13;;
1004;SDS011;491;53.480;10.174;2023-12-07T07:13:00;47.57;;;25.87;;
1004;SDS011;491;53.480;10.174;2023-12-07T07:15:29;42.43;;;26.80;;
1004;SDS011;491;53.480;10.174;2023-12-07T07:17:55;41.67;;;23.50;;
1004;SDS011;491;53.480;10.174;2023-12-07T07:20:21;36.90;;;24.10;;
1004;SDS011;491;53.480;10.174;2023-12-07T07:22:47;44.10;;;25.10;;
1004;SDS011;491;53.480;10.174;2023-12-07T07:25:13;36.97;;;22.13;;
1004;SDS011;491;53.480;10.174;2023-12-07T07:27:41;41.00;;;23.70;;
1004;SDS011;491;53.480;10.174;2023-12-07T07:30:07;45.57;;;24.60;;
1004;SDS011;491;53.480;10.174;2023-12-07T07:32:33;47.00;;;26.17;;
1004;SDS011;491;53.480;10.174;2023-12-07T07:34:59;48.50;;;27.00;;
1004;SDS011;491;53.480;10.174;2023-12-07T07:37:25;47.13;;;24.53;;
1004;SDS011;491;53.480;10.174;2023-12-07T07:39:51;33.07;;;21.47;;
1004;SDS011;491;53.480;10.174;2023-12-07T07:42:17;41.33;;;24.83;;
1004;SDS011;491;53.480;10.174;2023-12-07T07:44:43;40.50;;;23.73;;
1004;SDS011;491;53.480;10.174;2023-12-07T07:47:08;37.67;;;24.53;;
1004;SDS011;491;53.480;10.174;2023-12-07T07:49:34;39.33;;;23.30;;
1004;SDS011;491;53.480;10.174;2023-12-07T07:52:00;36.30;;;22.77;;
1004;SDS011;491;53.480;10.174;2023-12-07T07:54:26;39.77;;;24.13;;
1004;SDS011;491;53.480;10.174;2023-12-07T07:56:52;38.97;;;25.53;;
1004;SDS011;491;53.480;10.174;2023-12-07T07:59:18;50.93;;;30.30;;
1004;SDS011;491;53.480;10.174;2023-12-07T08:01:45;39.17;;;26.87;;
1004;SDS011;491;53.480;10.174;2023-12-07T08:04:12;52.93;;;28.47;;
1004;SDS011;491;53.480;10.174;2023-12-07T08:06:38;42.07;;;26.40;;
1004;SDS011;491;53.480;10.174;2023-12-07T08:09:04;47.00;;;30.80;;
1004;SDS011;491;53.480;10.174;2023-12-07T08:11:30;49.83;;;28.33;;
1004;SDS011;491;53.480;10.174;2023-12-07T08:13:57;51.60;;;29.77;;
1004;SDS011;491;53.480;10.174;2023-12-07T08:16:23;49.67;;;27.23;;
1004;SDS011;491;53.480;10.174;2023-12-07T08:18:49;44.20;;;26.93;;
1004;SDS011;491;53.480;10.174;2023-12-07T08:21:19;44.30;;;27.70;;
1004;SDS011;491;53.480;10.174;2023-12-07T08:23:45;45.87;;;27.73;;
1004;SDS011;491;53.480;10.174;2023-12-07T08:26:11;49.30;;;30.10;;
1004;SDS011;491;53.480;10.174;2023-12-07T08:28:39;50.67;;;30.57;;
1004;SDS011;491;53.480;10.174;2023-12-07T08:31:05;46.10;;;28.67;;
1004;SDS011;491;53.480;10.174;2023-12-07T08:33:31;44.13;;;29.87;;
1004;SDS011;491;53.480;10.174;2023-12-07T08:35:59;45.60;;;28.93;;
1004;SDS011;491;53.480;10.174;2023-12-07T08:38:25;45.17;;;27.27;;
1004;SDS011;491;53.480;10.174;2023-12-07T08:40:51;53.23;;;29.90;;
1004;SDS011;491;53.480;10.174;2023-12-07T08:43:20;47.03;;;28.30;;
1004;SDS011;491;53.480;10.174;2023-12-07T08:45:47;50.27;;;31.03;;
1004;SDS011;491;53.480;10.174;2023-12-07T08:48:13;46.20;;;28.23;;
1004;SDS011;491;53.480;10.174;2023-12-07T08:50:39;49.57;;;30.70;;
1004;SDS011;491;53.480;10.174;2023-12-07T08:53:05;46.80;;;29.77;;
1004;SDS011;491;53.480;10.174;2023-12-07T08:55:31;47.13;;;28.70;;
1004;SDS011;491;53.480;10.174;2023-12-07T08:58:00;46.03;;;29.03;;
1004;SDS011;491;53.480;10.174;2023-12-07T09:00:28;48.43;;;29.70;;
1004;SDS011;491;53.480;10.174;2023-12-07T09:02:54;45.57;;;28.60;;
1004;SDS011;491;53.480;10.174;2023-12-07T09:05:20;52.23;;;30.43;;
1004;SDS011;491;53.480;10.174;2023-12-07T09:07:45;52.63;;;31.60;;
1004;SDS011;491;53.480;10.174;2023-12-07T09:10:11;49.20;;;28.97;;
1004;SDS011;491;53.480;10.174;2023-12-07T09:12:37;49.60;;;29.40;;
1004;SDS011;491;53.480;10.174;2023-12-07T09:15:03;42.17;;;26.67;;
1004;SDS011;491;53.480;10.174;2023-12-07T09:17:30;53.53;;;33.70;;
1004;SDS011;491;53.480;10.174;2023-12-07T09:19:56;45.37;;;29.53;;
1004;SDS011;491;53.480;10.174;2023-12-07T09:22:22;47.40;;;28.27;;
1004;SDS011;491;53.480;10.174;2023-12-07T09:24:48;46.53;;;28.90;;
1004;SDS011;491;53.480;10.174;2023-12-07T09:27:14;48.37;;;28.90;;
1004;SDS011;491;53.480;10.174;2023-12-07T09:29:40;41.40;;;27.30;;
1004;SDS011;491;53.480;10.174;2023-12-07T09:32:06;45.20;;;28.93;;
1004;SDS011;491;53.480;10.174;2023-12-07T09:34:32;47.20;;;29.90;;
1004;SDS011;491;53.480;10.174;2023-12-07T09:37:05;48.03;;;30.50;;
1004;SDS011;491;53.480;10.174;2023-12-07T09:39:31;47.73;;;29.20;;
1004;SDS011;491;53.480;10.174;2023-12-07T09:41:57;50.93;;;30.27;;
1004;SDS011;491;53.480;10.174;2023-12-07T09:44:23;47.37;;;29.20;;
1004;SDS011;491;53.480;10.174;2023-12-07T09:46:49;44.80;;;27.70;;
1004;SDS011;491;53.480;10.174;2023-12-07T09:49:15;48.27;;;28.20;;
1004;SDS011;491;53.480;10.174;2023-12-07T09:51:41;47.20;;;28.53;;
1004;SDS011;491;53.480;10.174;2023-12-07T09:54:08;49.93;;;29.07;;
1004;SDS011;491;53.480;10.174;2023-12-07T09:56:34;48.03;;;28.37;;
1004;SDS011;491;53.480;10.174;2023-12-07T09:59:00;43.97;;;28.43;;
1004;SDS011;491;53.480;10.174;2023-12-07T10:01:29;48.33;;;29.03;;
1004;SDS011;491;53.480;10.174;2023-12-07T10:06:43;45.70;;;29.30;;
1004;SDS011;491;53.480;10.174;2023-12-07T10:09:10;46.17;;;28.00;;
1004;SDS011;491;53.480;10.174;2023-12-07T10:11:36;46.93;;;29.57;;
1004;SDS011;491;53.480;10.174;2023-12-07T10:14:02;49.07;;;30.57;;
1004;SDS011;491;53.480;10.174;2023-12-07T10:16:28;47.53;;;30.80;;
1004;SDS011;491;53.480;10.174;2023-12-07T10:18:54;42.43;;;28.03;;
1004;SDS011;491;53.480;10.174;2023-12-07T10:21:32;44.53;;;28.70;;
1004;SDS011;491;53.480;10.174;2023-12-07T10:23:58;46.70;;;28.67;;
1004;SDS011;491;53.480;10.174;2023-12-07T10:26:24;43.30;;;27.43;;
1004;SDS011;491;53.480;10.174;2023-12-07T10:28:50;46.50;;;30.60;;
1004;SDS011;491;53.480;10.174;2023-12-07T10:31:20;50.27;;;31.60;;
1004;SDS011;491;53.480;10.174;2023-12-07T10:33:47;46.63;;;29.23;;
1004;SDS011;491;53.480;10.174;2023-12-07T10:36:13;43.07;;;26.97;;
1004;SDS011;491;53.480;10.174;2023-12-07T10:38:39;46.27;;;28.27;;
1004;SDS011;491;53.480;10.174;2023-12-07T10:41:06;46.27;;;27.47;;
1004;SDS011;491;53.480;10.174;2023-12-07T10:43:36;47.63;;;30.17;;
1004;SDS011;491;53.480;10.174;2023-12-07T10:46:04;47.03;;;29.20;;
1004;SDS011;491;53.480;10.174;2023-12-07T10:48:31;43.63;;;28.00;;
1004;SDS011;491;53.480;10.174;2023-12-07T10:50:58;49.53;;;29.67;;
1004;SDS011;491;53.480;10.174;2023-12-07T10:53:29;45.00;;;27.87;;
1004;SDS011;491;53.480;10.174;2023-12-07T10:56:01;40.70;;;26.87;;
1004;SDS011;491;53.480;10.174;2023-12-07T10:58:30;52.40;;;28.77;;
1004;SDS011;491;53.480;10.174;2023-12-07T11:00:56;42.03;;;29.90;;
1004;SDS011;491;53.480;10.174;2023-12-07T11:03:22;49.20;;;31.23;;
1004;SDS011;491;53.480;10.174;2023-12-07T11:05:49;47.37;;;27.60;;
1004;SDS011;491;53.480;10.174;2023-12-07T11:08:25;41.77;;;27.23;;
1004;SDS011;491;53.480;10.174;2023-12-07T11:10:57;45.97;;;28.00;;
1004;SDS011;491;53.480;10.174;2023-12-07T11:13:27;44.60;;;26.27;;
1004;SDS011;491;53.480;10.174;2023-12-07T11:15:57;47.03;;;29.57;;
1004;SDS011;491;53.480;10.174;2023-12-07T11:18:26;44.50;;;26.03;;
1004;SDS011;491;53.480;10.174;2023-12-07T11:20:52;48.40;;;28.60;;
1004;SDS011;491;53.480;10.174;2023-12-07T11:23:18;44.83;;;27.17;;
1004;SDS011;491;53.480;10.174;2023-12-07T11:25:45;43.47;;;25.97;;
1004;SDS011;491;53.480;10.174;2023-12-07T11:28:12;42.10;;;27.20;;
1004;SDS011;491;53.480;10.174;2023-12-07T11:30:38;43.00;;;26.53;;
1004;SDS011;491;53.480;10.174;2023-12-07T11:33:06;37.77;;;23.77;;
1004;SDS011;491;53.480;10.174;2023-12-07T11:35:33;39.00;;;24.67;;
1004;SDS011;491;53.480;10.174;2023-12-07T11:38:03;37.37;;;25.40;;
1004;SDS011;491;53.480;10.174;2023-12-07T11:40:36;44.07;;;26.87;;
1004;SDS011;491;53.480;10.174;2023-12-07T11:43:02;41.73;;;27.47;;
1004;SDS011;491;53.480;10.174;2023-12-07T11:45:46;37.60;;;24.53;;
1004;SDS011;491;53.480;10.174;2023-12-07T11:48:14;43.07;;;26.70;;
1004;SDS011;491;53.480;10.174;2023-12-07T11:50:59;39.17;;;24.83;;
1004;SDS011;491;53.480;10.174;2023-12-07T11:53:26;40.27;;;24.90;;
1004;SDS011;491;53.480;10.174;2023-12-07T11:55:54;36.50;;;23.60;;
1004;SDS011;491;53.480;10.174;2023-12-07T11:58:20;38.43;;;25.37;;
1004;SDS011;491;53.480;10.174;2023-12-07T12:00:46;38.90;;;25.33;;
1004;SDS011;491;53.480;10.174;2023-12-07T12:03:13;36.60;;;23.90;;
1004;SDS011;491;53.480;10.174;2023-12-07T12:05:39;40.30;;;25.33;;
1004;SDS011;491;53.480;10.174;2023-12-07T12:08:05;42.63;;;26.17;;
1004;SDS011;491;53.480;10.174;2023-12-07T12:10:31;43.60;;;24.50;;
1004;SDS011;491;53.480;10.174;2023-12-07T12:13:00;39.90;;;26.13;;
1004;SDS011;491;53.480;10.174;2023-12-07T12:15:27;45.23;;;28.53;;
1004;SDS011;491;53.480;10.174;2023-12-07T12:17:54;42.30;;;25.77;;
1004;SDS011;491;53.480;10.174;2023-12-07T12:20:21;41.40;;;25.80;;
1004;SDS011;491;53.480;10.174;2023-12-07T12:22:47;47.47;;;27.23;;
1004;SDS011;491;53.480;10.174;2023-12-07T12:25:12;41.10;;;26.57;;
1004;SDS011;491;53.480;10.174;2023-12-07T12:27:39;44.20;;;29.17;;
1004;SDS011;491;53.480;10.174;2023-12-07T12:30:05;44.67;;;26.53;;
1004;SDS011;491;53.480;10.174;2023-12-07T12:32:44;46.60;;;25.50;;
1004;SDS011;491;53.480;10.174;2023-12-07T12:35:10;39.27;;;24.83;;
1004;SDS011;491;53.480;10.174;2023-12-07T12:37:38;48.00;;;28.37;;
1004;SDS011;491;53.480;10.174;2023-12-07T12:40:05;39.40;;;25.07;;
1004;SDS011;491;53.480;10.174;2023-12-07T12:42:31;39.40;;;25.27;;
1004;SDS011;491;53.480;10.174;2023-12-07T12:44:57;45.43;;;27.57;;
1004;SDS011;491;53.480;10.174;2023-12-07T12:47:23;47.87;;;30.80;;
1004;SDS011;491;53.480;10.174;2023-12-07T12:49:48;43.60;;;27.70;;
1004;SDS011;491;53.480;10.174;2023-12-07T12:52:15;47.57;;;32.93;;
1004;SDS011;491;53.480;10.174;2023-12-07T12:54:45;54.50;;;31.60;;
1004;SDS011;491;53.480;10.174;2023-12-07T12:57:11;55.20;;;34.10;;
1004;SDS011;491;53.480;10.174;2023-12-07T12:59:37;51.20;;;32.57;;
1004;SDS011;491;53.480;10.174;2023-12-07T13:02:03;48.97;;;31.07;;
1004;SDS011;491;53.480;10.174;2023-12-07T13:04:29;51.40;;;33.60;;
1004;SDS011;491;53.480;10.174;2023-12-07T13:06:55;51.87;;;35.17;;
1004;SDS011;491;53.480;10.174;2023-12-07T13:09:21;51.60;;;31.90;;
1004;SDS011;491;53.480;10.174;2023-12-07T13:11:47;51.03;;;29.70;;
1004;SDS011;491;53.480;10.174;2023-12-07T13:14:16;51.10;;;30.50;;
1004;SDS011;491;53.480;10.174;2023-12-07T13:16:42;54.20;;;32.30;;
1004;SDS011;491;53.480;10.174;2023-12-07T13:19:08;47.60;;;30.87;;
1004;SDS011;491;53.480;10.174;2023-12-07T13:21:34;59.93;;;35.47;;
1004;SDS011;491;53.480;10.174;2023-12-07T13:24:00;49.03;;;30.33;;
1004;SDS011;491;53.480;10.174;2023-12-07T13:26:29;48.77;;;30.07;;
1004;SDS011;491;53.480;10.174;2023-12-07T13:28:55;47.73;;;29.13;;
1004;SDS011;491;53.480;10.174;2023-12-07T13:31:21;49.30;;;30.73;;
1004;SDS011;491;53.480;10.174;2023-12-07T13:33:47;56.03;;;32.07;;
1004;SDS011;491;53.480;10.174;2023-12-07T13:36:13;60.27;;;35.87;;
1004;SDS011;491;53.480;10.174;2023-12-07T13:38:42;54.07;;;31.93;;
1004;SDS011;491;53.480;10.174;2023-12-07T13:41:08;68.60;;;41.80;;
1004;SDS011;491;53.480;10.174;2023-12-07T13:43:34;55.63;;;33.83;;
1004;SDS011;491;53.480;10.174;2023-12-07T13:46:00;56.57;;;35.73;;
1004;SDS011;491;53.480;10.174;2023-12-07T13:48:26;57.03;;;35.43;;
1004;SDS011;491;53.480;10.174;2023-12-07T13:50:52;51.50;;;32.87;;
1004;SDS011;491;53.480;10.174;2023-12-07T13:53:18;52.13;;;31.63;;
1004;SDS011;491;53.480;10.174;2023-12-07T13:55:44;52.00;;;32.63;;
1004;SDS011;491;53.480;10.174;2023-12-07T13:58:11;51.70;;;31.03;;
1004;SDS011;491;53.480;10.174;2023-12-07T14:00:37;54.37;;;34.83;;
1004;SDS011;491;53.480;10.174;2023-12-07T14:03:03;51.07;;;31.13;;
1004;SDS011;491;53.480;10.174;2023-12-07T14:05:29;50.97;;;31.47;;
1004;SDS011;491;53.480;10.174;2023-12-07T14:07:55;57.63;;;33.33;;
1004;SDS011;491;53.480;10.174;2023-12-07T14:10:22;50.50;;;32.07;;
1004;SDS011;491;53.480;10.174;2023-12-07T14:12:48;45.17;;;30.07;;
1004;SDS011;491;53.480;10.174;2023-12-07T14:15:14;51.17;;;28.93;;
1004;SDS011;491;53.480;10.174;2023-12-07T14:17:40;50.73;;;31.53;;
1004;SDS011;491;53.480;10.174;2023-12-07T14:20:09;57.97;;;36.47;;
1004;SDS011;491;53.480;10.174;2023-12-07T14:22:35;52.33;;;33.50;;
1004;SDS011;491;53.480;10.174;2023-12-07T14:25:01;59.10;;;33.73;;
1004;SDS011;491;53.480;10.174;2023-12-07T14:27:27;49.80;;;29.50;;
1004;SDS011;491;53.480;10.174;2023-12-07T14:29:53;50.23;;;30.40;;
1004;SDS011;491;53.480;10.174;2023-12-07T14:32:19;45.10;;;25.73;;
1004;SDS011;491;53.480;10.174;2023-12-07T14:34:45;42.33;;;28.40;;
1004;SDS011;491;53.480;10.174;2023-12-07T14:37:11;47.13;;;27.43;;
1004;SDS011;491;53.480;10.174;2023-12-07T14:39:38;48.73;;;28.03;;
1004;SDS011;491;53.480;10.174;2023-12-07T14:42:05;43.00;;;26.67;;
1004;SDS011;491;53.480;10.174;2023-12-07T14:44:31;45.13;;;28.23;;
1004;SDS011;491;53.480;10.174;2023-12-07T14:46:57;43.30;;;26.50;;
1004;SDS011;491;53.480;10.174;2023-12-07T14:49:24;47.23;;;28.73;;